sensor_id;sensor_type;location;lat;lon;timestamp;temperature;humidity
56256;DHT22;57229;51.432;-2.598;2022-12-29T00:00:59;14.80;99.90
56256;DHT22;57229;51.432;-2.598;2022-12-29T00:03:27;14.80;99.90
56256;DHT22;57229;51.432;-2.598;2022-12-29T00:05:57;14.80;99.90
56256;DHT22;57229;51.432;-2.598;2022-12-29T00:08:23;14.70;99.90
56256;DHT22;57229;51.432;-2.598;2022-12-29T00:11:12;14.70;99.90
56256;DHT22;57229;51.432;-2.598;2022-12-29T00:13:39;14.70;99.90
56256;DHT22;57229;51.432;-2.598;2022-12-29T00:16:24;14.70;99.90
56256;DHT22;57229;51.432;-2.598;2022-12-29T00:18:51;14.70;99.90
56256;DHT22;57229;51.432;-2.598;2022-12-29T00:21:19;14.70;99.90
56256;DHT22;57229;51.432;-2.598;2022-12-29T00:24:05;14.70;99.90
56256;DHT22;57229;51.432;-2.598;2022-12-29T00:29:45;14.60;99.90
56256;DHT22;57229;51.432;-2.598;2022-12-29T00:32:29;14.60;99.90
56256;DHT22;57229;51.432;-2.598;2022-12-29T00:35:19;14.60;99.90
56256;DHT22;57229;51.432;-2.598;2022-12-29T00:37:49;14.60;99.90
56256;DHT22;57229;51.432;-2.598;2022-12-29T00:40:33;14.60;99.90
56256;DHT22;57229;51.432;-2.598;2022-12-29T00:43:17;14.60;99.90
56256;DHT22;57229;51.432;-2.598;2022-12-29T00:46:01;14.60;99.90
56256;DHT22;57229;51.432;-2.598;2022-12-29T00:48:27;14.60;99.90
56256;DHT22;57229;51.432;-2.598;2022-12-29T00:51:11;14.60;99.90
56256;DHT22;57229;51.432;-2.598;2022-12-29T00:53:37;14.60;99.90
56256;DHT22;57229;51.432;-2.598;2022-12-29T00:56:03;14.60;99.90
56256;DHT22;57229;51.432;-2.598;2022-12-29T00:58:29;14.50;99.90
56256;DHT22;57229;51.432;-2.598;2022-12-29T01:01:06;14.50;99.90
56256;DHT22;57229;51.432;-2.598;2022-12-29T01:03:33;14.50;99.90
56256;DHT22;57229;51.432;-2.598;2022-12-29T01:06:08;14.50;99.90
56256;DHT22;57229;51.432;-2.598;2022-12-29T01:08:35;14.50;99.90
56256;DHT22;57229;51.432;-2.598;2022-12-29T01:11:06;14.50;99.90
56256;DHT22;57229;51.432;-2.598;2022-12-29T01:13:32;14.50;99.90
56256;DHT22;57229;51.432;-2.598;2022-12-29T01:15:58;14.50;99.90
56256;DHT22;57229;51.432;-2.598;2022-12-29T01:18:24;14.50;99.90
56256;DHT22;57229;51.432;-2.598;2022-12-29T01:20:50;14.50;99.90
56256;DHT22;57229;51.432;-2.598;2022-12-29T01:23:17;14.50;99.90
56256;DHT22;57229;51.432;-2.598;2022-12-29T01:25:42;14.50;99.90
56256;DHT22;57229;51.432;-2.598;2022-12-29T01:28:08;14.40;99.90
56256;DHT22;57229;51.432;-2.598;2022-12-29T01:30:35;14.40;99.90
56256;DHT22;57229;51.432;-2.598;2022-12-29T01:33:01;14.40;99.90
56256;DHT22;57229;51.432;-2.598;2022-12-29T01:35:28;14.50;99.90
56256;DHT22;57229;51.432;-2.598;2022-12-29T01:37:54;14.40;99.90
56256;DHT22;57229;51.432;-2.598;2022-12-29T01:40:31;14.40;99.90
56256;DHT22;57229;51.432;-2.598;2022-12-29T01:42:58;14.40;99.90
56256;DHT22;57229;51.432;-2.598;2022-12-29T01:45:42;14.40;99.90
56256;DHT22;57229;51.432;-2.598;2022-12-29T01:52:09;14.40;99.90
56256;DHT22;57229;51.432;-2.598;2022-12-29T01:54:54;14.40;99.90
56256;DHT22;57229;51.432;-2.598;2022-12-29T01:57:43;14.40;99.90
56256;DHT22;57229;51.432;-2.598;2022-12-29T02:00:15;14.30;99.90
56256;DHT22;57229;51.432;-2.598;2022-12-29T02:03:13;14.40;99.90
56256;DHT22;57229;51.432;-2.598;2022-12-29T02:08:33;14.40;99.90
56256;DHT22;57229;51.432;-2.598;2022-12-29T02:11:01;14.40;99.90
56256;DHT22;57229;51.432;-2.598;2022-12-29T02:13:33;14.40;99.90
56256;DHT22;57229;51.432;-2.598;2022-12-29T02:18:56;14.40;99.90
56256;DHT22;57229;51.432;-2.598;2022-12-29T02:35:37;14.30;99.90
56256;DHT22;57229;51.432;-2.598;2022-12-29T02:41:31;14.30;99.90
56256;DHT22;57229;51.432;-2.598;2022-12-29T02:49:31;14.20;99.90
56256;DHT22;57229;51.432;-2.598;2022-12-29T02:52:15;14.20;99.90
56256;DHT22;57229;51.432;-2.598;2022-12-29T02:54:43;14.20;99.90
56256;DHT22;57229;51.432;-2.598;2022-12-29T02:59:52;14.20;99.90
56256;DHT22;57229;51.432;-2.598;2022-12-29T03:19:11;14.10;99.90
56256;DHT22;57229;51.432;-2.598;2022-12-29T03:24:41;14.10;99.90
56256;DHT22;57229;51.432;-2.598;2022-12-29T03:27:12;14.10;99.90
56256;DHT22;57229;51.432;-2.598;2022-12-29T03:29:51;14.10;99.90
56256;DHT22;57229;51.432;-2.598;2022-12-29T03:33:12;14.10;99.90
56256;DHT22;57229;51.432;-2.598;2022-12-29T03:35:16;14.00;99.90
56256;DHT22;57229;51.432;-2.598;2022-12-29T03:38:00;14.10;99.90
56256;DHT22;57229;51.432;-2.598;2022-12-29T03:40:29;14.00;99.90
56256;DHT22;57229;51.432;-2.598;2022-12-29T03:43:00;14.00;99.90
56256;DHT22;57229;51.432;-2.598;2022-12-29T03:45:28;14.00;99.90
56256;DHT22;57229;51.432;-2.598;2022-12-29T03:47:55;14.00;99.90
56256;DHT22;57229;51.432;-2.598;2022-12-29T03:50:21;14.00;99.90
56256;DHT22;57229;51.432;-2.598;2022-12-29T03:52:49;14.00;99.90
56256;DHT22;57229;51.432;-2.598;2022-12-29T03:55:16;14.00;99.90
56256;DHT22;57229;51.432;-2.598;2022-12-29T03:57:59;14.00;99.90
56256;DHT22;57229;51.432;-2.598;2022-12-29T04:00:25;14.00;99.90
56256;DHT22;57229;51.432;-2.598;2022-12-29T04:02:52;14.00;99.90
56256;DHT22;57229;51.432;-2.598;2022-12-29T04:05:22;14.00;99.90
56256;DHT22;57229;51.432;-2.598;2022-12-29T04:07:52;13.90;99.90
56256;DHT22;57229;51.432;-2.598;2022-12-29T04:10:21;13.90;99.90
56256;DHT22;57229;51.432;-2.598;2022-12-29T04:12:47;13.90;99.90
56256;DHT22;57229;51.432;-2.598;2022-12-29T04:15:14;13.90;99.90
56256;DHT22;57229;51.432;-2.598;2022-12-29T04:17:41;13.90;99.90
56256;DHT22;57229;51.432;-2.598;2022-12-29T04:20:07;13.90;99.90
56256;DHT22;57229;51.432;-2.598;2022-12-29T04:23:08;13.90;99.90
56256;DHT22;57229;51.432;-2.598;2022-12-29T04:25:36;13.90;99.90
56256;DHT22;57229;51.432;-2.598;2022-12-29T04:28:03;13.90;99.90
56256;DHT22;57229;51.432;-2.598;2022-12-29T04:30:52;13.90;99.90
56256;DHT22;57229;51.432;-2.598;2022-12-29T04:33:29;13.90;99.90
56256;DHT22;57229;51.432;-2.598;2022-12-29T04:35:55;13.90;99.90
56256;DHT22;57229;51.432;-2.598;2022-12-29T04:38:22;13.90;99.90
56256;DHT22;57229;51.432;-2.598;2022-12-29T04:47:51;14.00;99.90
56256;DHT22;57229;51.432;-2.598;2022-12-29T04:50:50;14.00;99.90
56256;DHT22;57229;51.432;-2.598;2022-12-29T04:59:22;14.00;99.90
56256;DHT22;57229;51.432;-2.598;2022-12-29T05:05:07;14.00;99.90
56256;DHT22;57229;51.432;-2.598;2022-12-29T05:08:09;14.00;99.90
56256;DHT22;57229;51.432;-2.598;2022-12-29T05:10:35;14.00;99.90
56256;DHT22;57229;51.432;-2.598;2022-12-29T05:13:01;14.00;99.90
56256;DHT22;57229;51.432;-2.598;2022-12-29T05:26:15;14.00;99.90
56256;DHT22;57229;51.432;-2.598;2022-12-29T05:39:02;13.90;99.90
56256;DHT22;57229;51.432;-2.598;2022-12-29T05:41:33;13.90;99.90
56256;DHT22;57229;51.432;-2.598;2022-12-29T05:44:03;13.90;99.90
56256;DHT22;57229;51.432;-2.598;2022-12-29T05:53:05;13.90;99.90
56256;DHT22;57229;51.432;-2.598;2022-12-29T05:55:30;13.90;99.90
56256;DHT22;57229;51.432;-2.598;2022-12-29T05:57:56;13.90;99.90
56256;DHT22;57229;51.432;-2.598;2022-12-29T06:00:22;13.90;99.90
56256;DHT22;57229;51.432;-2.598;2022-12-29T06:02:48;13.90;99.90
56256;DHT22;57229;51.432;-2.598;2022-12-29T06:05:13;13.90;99.90
56256;DHT22;57229;51.432;-2.598;2022-12-29T06:07:39;13.90;99.90
56256;DHT22;57229;51.432;-2.598;2022-12-29T06:10:05;13.90;99.90
56256;DHT22;57229;51.432;-2.598;2022-12-29T06:12:31;13.80;99.90
56256;DHT22;57229;51.432;-2.598;2022-12-29T06:14:57;13.80;99.90
56256;DHT22;57229;51.432;-2.598;2022-12-29T06:17:23;13.80;99.90
56256;DHT22;57229;51.432;-2.598;2022-12-29T06:19:49;13.80;99.90
56256;DHT22;57229;51.432;-2.598;2022-12-29T06:22:15;13.80;99.90
56256;DHT22;57229;51.432;-2.598;2022-12-29T06:24:40;13.80;99.90
56256;DHT22;57229;51.432;-2.598;2022-12-29T06:27:06;13.80;99.90
56256;DHT22;57229;51.432;-2.598;2022-12-29T06:29:32;13.80;99.90
56256;DHT22;57229;51.432;-2.598;2022-12-29T06:31:58;13.80;99.90
56256;DHT22;57229;51.432;-2.598;2022-12-29T06:34:24;13.80;99.90
56256;DHT22;57229;51.432;-2.598;2022-12-29T06:36:50;13.80;99.90
56256;DHT22;57229;51.432;-2.598;2022-12-29T06:39:16;13.80;99.90
56256;DHT22;57229;51.432;-2.598;2022-12-29T06:41:42;13.80;99.90
56256;DHT22;57229;51.432;-2.598;2022-12-29T06:44:08;13.80;99.90
56256;DHT22;57229;51.432;-2.598;2022-12-29T06:46:33;13.80;99.90
56256;DHT22;57229;51.432;-2.598;2022-12-29T06:48:59;13.80;99.90
56256;DHT22;57229;51.432;-2.598;2022-12-29T06:51:25;13.80;99.90
56256;DHT22;57229;51.432;-2.598;2022-12-29T06:53:50;13.80;99.90
56256;DHT22;57229;51.432;-2.598;2022-12-29T06:56:16;13.80;99.90
56256;DHT22;57229;51.432;-2.598;2022-12-29T06:58:41;13.80;99.90
56256;DHT22;57229;51.432;-2.598;2022-12-29T07:01:07;13.80;99.90
56256;DHT22;57229;51.432;-2.598;2022-12-29T07:03:33;13.80;99.90
56256;DHT22;57229;51.432;-2.598;2022-12-29T07:05:59;13.90;99.90
56256;DHT22;57229;51.432;-2.598;2022-12-29T07:08:24;13.90;99.90
56256;DHT22;57229;51.432;-2.598;2022-12-29T07:10:51;14.00;99.90
56256;DHT22;57229;51.432;-2.598;2022-12-29T07:13:17;14.10;99.90
56256;DHT22;57229;51.432;-2.598;2022-12-29T07:15:42;14.10;99.90
56256;DHT22;57229;51.432;-2.598;2022-12-29T07:18:08;14.20;99.90
56256;DHT22;57229;51.432;-2.598;2022-12-29T07:20:34;14.20;99.90
56256;DHT22;57229;51.432;-2.598;2022-12-29T07:22:59;14.30;99.90
56256;DHT22;57229;51.432;-2.598;2022-12-29T07:25:25;14.40;99.90
56256;DHT22;57229;51.432;-2.598;2022-12-29T07:27:51;14.40;99.90
56256;DHT22;57229;51.432;-2.598;2022-12-29T07:30:17;14.40;99.90
56256;DHT22;57229;51.432;-2.598;2022-12-29T07:32:42;14.50;99.90
56256;DHT22;57229;51.432;-2.598;2022-12-29T07:35:08;14.50;99.90
56256;DHT22;57229;51.432;-2.598;2022-12-29T07:37:34;14.60;99.90
56256;DHT22;57229;51.432;-2.598;2022-12-29T07:40:01;14.60;99.90
56256;DHT22;57229;51.432;-2.598;2022-12-29T07:42:29;14.70;99.90
56256;DHT22;57229;51.432;-2.598;2022-12-29T07:44:54;14.60;99.90
56256;DHT22;57229;51.432;-2.598;2022-12-29T07:47:20;14.70;99.90
56256;DHT22;57229;51.432;-2.598;2022-12-29T07:49:46;14.70;99.90
56256;DHT22;57229;51.432;-2.598;2022-12-29T07:52:12;14.70;99.90
56256;DHT22;57229;51.432;-2.598;2022-12-29T07:54:37;14.60;99.90
56256;DHT22;57229;51.432;-2.598;2022-12-29T07:57:05;14.70;99.90
56256;DHT22;57229;51.432;-2.598;2022-12-29T07:59:34;14.60;99.90
56256;DHT22;57229;51.432;-2.598;2022-12-29T08:02:00;14.70;99.90
56256;DHT22;57229;51.432;-2.598;2022-12-29T08:04:26;14.60;99.90
56256;DHT22;57229;51.432;-2.598;2022-12-29T08:06:51;14.60;99.90
56256;DHT22;57229;51.432;-2.598;2022-12-29T08:09:17;14.60;99.90
56256;DHT22;57229;51.432;-2.598;2022-12-29T08:11:43;14.60;99.90
56256;DHT22;57229;51.432;-2.598;2022-12-29T08:14:10;14.60;99.90
56256;DHT22;57229;51.432;-2.598;2022-12-29T08:16:35;14.60;99.90
56256;DHT22;57229;51.432;-2.598;2022-12-29T08:19:01;14.60;99.90
56256;DHT22;57229;51.432;-2.598;2022-12-29T08:21:28;14.60;99.90
56256;DHT22;57229;51.432;-2.598;2022-12-29T08:23:54;14.50;99.90
56256;DHT22;57229;51.432;-2.598;2022-12-29T08:26:20;14.60;99.90
56256;DHT22;57229;51.432;-2.598;2022-12-29T08:28:46;14.50;99.90
56256;DHT22;57229;51.432;-2.598;2022-12-29T08:31:12;14.50;99.90
56256;DHT22;57229;51.432;-2.598;2022-12-29T08:33:37;14.50;99.90
56256;DHT22;57229;51.432;-2.598;2022-12-29T08:36:05;14.50;99.90
56256;DHT22;57229;51.432;-2.598;2022-12-29T08:38:31;14.50;99.90
56256;DHT22;57229;51.432;-2.598;2022-12-29T08:40:58;14.50;99.90
56256;DHT22;57229;51.432;-2.598;2022-12-29T08:43:24;14.50;99.90
56256;DHT22;57229;51.432;-2.598;2022-12-29T08:45:51;14.50;99.90
56256;DHT22;57229;51.432;-2.598;2022-12-29T08:48:17;14.50;99.90
56256;DHT22;57229;51.432;-2.598;2022-12-29T08:50:45;14.50;99.90
56256;DHT22;57229;51.432;-2.598;2022-12-29T08:53:11;14.40;99.90
56256;DHT22;57229;51.432;-2.598;2022-12-29T08:55:37;14.40;99.90
56256;DHT22;57229;51.432;-2.598;2022-12-29T08:58:02;14.40;99.90
56256;DHT22;57229;51.432;-2.598;2022-12-29T09:00:28;14.40;99.90
56256;DHT22;57229;51.432;-2.598;2022-12-29T09:02:54;14.30;99.90
56256;DHT22;57229;51.432;-2.598;2022-12-29T09:05:20;14.30;99.90
56256;DHT22;57229;51.432;-2.598;2022-12-29T09:07:45;14.30;99.90
56256;DHT22;57229;51.432;-2.598;2022-12-29T09:10:11;14.30;99.90
56256;DHT22;57229;51.432;-2.598;2022-12-29T09:12:37;14.30;99.90
56256;DHT22;57229;51.432;-2.598;2022-12-29T09:15:03;14.30;99.90
56256;DHT22;57229;51.432;-2.598;2022-12-29T09:17:29;14.30;99.90
56256;DHT22;57229;51.432;-2.598;2022-12-29T09:20:16;14.20;99.90
56256;DHT22;57229;51.432;-2.598;2022-12-29T09:22:42;14.20;99.90
56256;DHT22;57229;51.432;-2.598;2022-12-29T09:25:08;14.20;99.90
56256;DHT22;57229;51.432;-2.598;2022-12-29T09:27:35;14.20;99.90
56256;DHT22;57229;51.432;-2.598;2022-12-29T09:30:02;14.30;99.90
56256;DHT22;57229;51.432;-2.598;2022-12-29T09:32:28;14.30;99.90
56256;DHT22;57229;51.432;-2.598;2022-12-29T09:34:53;14.30;99.90
56256;DHT22;57229;51.432;-2.598;2022-12-29T09:37:19;14.30;99.90
56256;DHT22;57229;51.432;-2.598;2022-12-29T09:39:45;14.30;99.90
56256;DHT22;57229;51.432;-2.598;2022-12-29T09:42:19;14.30;99.90
56256;DHT22;57229;51.432;-2.598;2022-12-29T09:45:20;14.30;99.90
56256;DHT22;57229;51.432;-2.598;2022-12-29T09:47:48;14.30;99.90
56256;DHT22;57229;51.432;-2.598;2022-12-29T09:53:01;14.30;99.90
56256;DHT22;57229;51.432;-2.598;2022-12-29T09:55:38;14.40;99.90
56256;DHT22;57229;51.432;-2.598;2022-12-29T09:59:14;14.30;99.90
56256;DHT22;57229;51.432;-2.598;2022-12-29T10:01:36;14.30;99.90
56256;DHT22;57229;51.432;-2.598;2022-12-29T10:04:28;14.30;99.90
56256;DHT22;57229;51.432;-2.598;2022-12-29T10:07:02;14.30;99.90
56256;DHT22;57229;51.432;-2.598;2022-12-29T10:09:40;14.30;99.90
56256;DHT22;57229;51.432;-2.598;2022-12-29T10:25:33;14.60;99.90
56256;DHT22;57229;51.432;-2.598;2022-12-29T10:28:03;14.70;99.90
56256;DHT22;57229;51.432;-2.598;2022-12-29T10:30:33;14.70;99.90
56256;DHT22;57229;51.432;-2.598;2022-12-29T10:33:02;14.70;99.90
56256;DHT22;57229;51.432;-2.598;2022-12-29T10:35:36;14.60;99.90
56256;DHT22;57229;51.432;-2.598;2022-12-29T10:43:56;14.60;99.90
56256;DHT22;57229;51.432;-2.598;2022-12-29T10:46:32;14.70;99.90
56256;DHT22;57229;51.432;-2.598;2022-12-29T10:48:59;14.80;99.90
56256;DHT22;57229;51.432;-2.598;2022-12-29T10:51:30;14.90;99.90
56256;DHT22;57229;51.432;-2.598;2022-12-29T10:54:05;15.00;99.90
56256;DHT22;57229;51.432;-2.598;2022-12-29T10:56:42;14.90;99.90
56256;DHT22;57229;51.432;-2.598;2022-12-29T10:59:21;14.90;99.90
56256;DHT22;57229;51.432;-2.598;2022-12-29T11:07:30;14.80;99.90
56256;DHT22;57229;51.432;-2.598;2022-12-29T11:10:20;14.80;99.90
56256;DHT22;57229;51.432;-2.598;2022-12-29T11:13:10;14.80;99.90
56256;DHT22;57229;51.432;-2.598;2022-12-29T11:15:44;14.90;99.90
56256;DHT22;57229;51.432;-2.598;2022-12-29T11:18:36;14.90;99.90
56256;DHT22;57229;51.432;-2.598;2022-12-29T11:21:05;14.90;99.90
56256;DHT22;57229;51.432;-2.598;2022-12-29T11:26:21;14.90;99.80
56256;DHT22;57229;51.432;-2.598;2022-12-29T11:31:58;15.00;99.80
56256;DHT22;57229;51.432;-2.598;2022-12-29T11:36:57;15.20;99.50
56256;DHT22;57229;51.432;-2.598;2022-12-29T11:39:40;15.30;99.30
56256;DHT22;57229;51.432;-2.598;2022-12-29T11:42:14;15.50;99.10
56256;DHT22;57229;51.432;-2.598;2022-12-29T11:44:44;15.60;98.90
56256;DHT22;57229;51.432;-2.598;2022-12-29T11:47:34;15.80;98.50
56256;DHT22;57229;51.432;-2.598;2022-12-29T11:50:02;15.90;98.20
56256;DHT22;57229;51.432;-2.598;2022-12-29T11:52:32;16.00;98.10
56256;DHT22;57229;51.432;-2.598;2022-12-29T11:55:02;16.10;97.90
56256;DHT22;57229;51.432;-2.598;2022-12-29T11:57:29;16.10;97.80
56256;DHT22;57229;51.432;-2.598;2022-12-29T11:59:57;16.00;97.70
56256;DHT22;57229;51.432;-2.598;2022-12-29T12:05:33;15.80;97.80
56256;DHT22;57229;51.432;-2.598;2022-12-29T12:10:50;15.70;98.10
56256;DHT22;57229;51.432;-2.598;2022-12-29T12:13:47;15.70;98.10
56256;DHT22;57229;51.432;-2.598;2022-12-29T12:16:24;15.70;98.10
56256;DHT22;57229;51.432;-2.598;2022-12-29T12:19:01;15.80;98.20
56256;DHT22;57229;51.432;-2.598;2022-12-29T12:21:42;15.80;98.00
56256;DHT22;57229;51.432;-2.598;2022-12-29T12:27:41;15.70;98.10
56256;DHT22;57229;51.432;-2.598;2022-12-29T12:30:21;15.70;98.20
56256;DHT22;57229;51.432;-2.598;2022-12-29T12:35:42;16.00;97.70
56256;DHT22;57229;51.432;-2.598;2022-12-29T12:38:35;16.10;97.30
56256;DHT22;57229;51.432;-2.598;2022-12-29T13:01:55;17.60;95.30
56256;DHT22;57229;51.432;-2.598;2022-12-29T13:37:03;15.70;97.30
56256;DHT22;57229;51.432;-2.598;2022-12-29T13:39:43;15.60;97.40
56256;DHT22;57229;51.432;-2.598;2022-12-29T13:42:12;15.60;97.60
56256;DHT22;57229;51.432;-2.598;2022-12-29T13:58:20;16.00;96.90
56256;DHT22;57229;51.432;-2.598;2022-12-29T14:03:54;15.70;97.30
56256;DHT22;57229;51.432;-2.598;2022-12-29T14:06:34;15.50;97.50
56256;DHT22;57229;51.432;-2.598;2022-12-29T14:11:50;15.30;97.80
56256;DHT22;57229;51.432;-2.598;2022-12-29T14:16:47;15.10;98.20
56256;DHT22;57229;51.432;-2.598;2022-12-29T14:21:40;14.90;98.60
56256;DHT22;57229;51.432;-2.598;2022-12-29T14:34:54;15.00;99.90
56256;DHT22;57229;51.432;-2.598;2022-12-29T14:37:34;15.10;99.90
56256;DHT22;57229;51.432;-2.598;2022-12-29T14:42:32;15.30;99.80
56256;DHT22;57229;51.432;-2.598;2022-12-29T14:45:27;15.40;99.30
56256;DHT22;57229;51.432;-2.598;2022-12-29T14:47:52;15.50;98.90
56256;DHT22;57229;51.432;-2.598;2022-12-29T14:50:24;15.60;98.50
56256;DHT22;57229;51.432;-2.598;2022-12-29T14:52:58;15.60;98.40
56256;DHT22;57229;51.432;-2.598;2022-12-29T14:55:57;15.50;98.30
56256;DHT22;57229;51.432;-2.598;2022-12-29T15:07:51;15.30;99.40
56256;DHT22;57229;51.432;-2.598;2022-12-29T15:10:24;15.20;99.60
56256;DHT22;57229;51.432;-2.598;2022-12-29T15:13:00;15.20;99.80
56256;DHT22;57229;51.432;-2.598;2022-12-29T15:15:27;15.00;99.90
56256;DHT22;57229;51.432;-2.598;2022-12-29T15:17:56;15.00;99.90
56256;DHT22;57229;51.432;-2.598;2022-12-29T15:20:31;14.90;99.90
56256;DHT22;57229;51.432;-2.598;2022-12-29T15:23:12;14.80;99.90
56256;DHT22;57229;51.432;-2.598;2022-12-29T15:25:59;14.80;99.90
56256;DHT22;57229;51.432;-2.598;2022-12-29T15:28:26;14.70;99.90
56256;DHT22;57229;51.432;-2.598;2022-12-29T15:31:01;14.60;99.90
56256;DHT22;57229;51.432;-2.598;2022-12-29T15:33:28;14.60;99.90
56256;DHT22;57229;51.432;-2.598;2022-12-29T15:35:56;14.60;99.90
56256;DHT22;57229;51.432;-2.598;2022-12-29T15:38:28;14.60;99.90
56256;DHT22;57229;51.432;-2.598;2022-12-29T15:40:57;14.70;99.90
56256;DHT22;57229;51.432;-2.598;2022-12-29T15:46:07;14.80;99.90
56256;DHT22;57229;51.432;-2.598;2022-12-29T15:48:33;14.80;99.90
56256;DHT22;57229;51.432;-2.598;2022-12-29T15:51:00;14.90;99.90
56256;DHT22;57229;51.432;-2.598;2022-12-29T15:53:27;14.90;99.90
56256;DHT22;57229;51.432;-2.598;2022-12-29T15:56:00;15.00;99.90
56256;DHT22;57229;51.432;-2.598;2022-12-29T15:58:30;15.00;99.90
56256;DHT22;57229;51.432;-2.598;2022-12-29T16:01:05;15.10;99.90
56256;DHT22;57229;51.432;-2.598;2022-12-29T16:03:38;15.10;99.90
56256;DHT22;57229;51.432;-2.598;2022-12-29T16:06:10;15.20;99.90
56256;DHT22;57229;51.432;-2.598;2022-12-29T16:08:39;15.20;99.90
56256;DHT22;57229;51.432;-2.598;2022-12-29T16:11:23;15.30;99.90
56256;DHT22;57229;51.432;-2.598;2022-12-29T16:13:56;15.30;99.90
56256;DHT22;57229;51.432;-2.598;2022-12-29T16:17:20;15.30;99.90
56256;DHT22;57229;51.432;-2.598;2022-12-29T16:20:22;15.40;99.90
56256;DHT22;57229;51.432;-2.598;2022-12-29T16:22:56;15.50;99.90
56256;DHT22;57229;51.432;-2.598;2022-12-29T16:25:28;15.50;99.90
56256;DHT22;57229;51.432;-2.598;2022-12-29T16:28:20;15.60;99.90
56256;DHT22;57229;51.432;-2.598;2022-12-29T16:31:06;15.60;99.90
56256;DHT22;57229;51.432;-2.598;2022-12-29T16:36:32;15.60;99.90
56256;DHT22;57229;51.432;-2.598;2022-12-29T16:39:19;15.60;99.90
56256;DHT22;57229;51.432;-2.598;2022-12-29T16:41:50;15.70;99.90
56256;DHT22;57229;51.432;-2.598;2022-12-29T16:44:22;15.70;99.90
56256;DHT22;57229;51.432;-2.598;2022-12-29T16:49:40;15.70;99.90
56256;DHT22;57229;51.432;-2.598;2022-12-29T16:52:30;15.80;99.90
56256;DHT22;57229;51.432;-2.598;2022-12-29T16:55:14;15.80;99.90
56256;DHT22;57229;51.432;-2.598;2022-12-29T16:58:11;15.80;99.90
56256;DHT22;57229;51.432;-2.598;2022-12-29T17:00:52;15.80;99.90
56256;DHT22;57229;51.432;-2.598;2022-12-29T17:03:35;15.80;99.90
56256;DHT22;57229;51.432;-2.598;2022-12-29T17:06:22;15.80;99.90
56256;DHT22;57229;51.432;-2.598;2022-12-29T17:08:51;15.80;99.90
56256;DHT22;57229;51.432;-2.598;2022-12-29T17:11:53;15.70;99.90
56256;DHT22;57229;51.432;-2.598;2022-12-29T17:14:40;15.70;99.90
56256;DHT22;57229;51.432;-2.598;2022-12-29T17:19:48;15.60;99.90
56256;DHT22;57229;51.432;-2.598;2022-12-29T17:23:39;15.60;99.90
56256;DHT22;57229;51.432;-2.598;2022-12-29T17:25:43;15.60;99.90
56256;DHT22;57229;51.432;-2.598;2022-12-29T17:30:41;15.60;99.90
56256;DHT22;57229;51.432;-2.598;2022-12-29T17:33:11;15.50;99.90
56256;DHT22;57229;51.432;-2.598;2022-12-29T17:35:37;15.40;99.90
56256;DHT22;57229;51.432;-2.598;2022-12-29T17:40:43;15.40;99.90
56256;DHT22;57229;51.432;-2.598;2022-12-29T17:43:14;15.30;99.90
56256;DHT22;57229;51.432;-2.598;2022-12-29T17:45:41;15.30;99.90
56256;DHT22;57229;51.432;-2.598;2022-12-29T17:48:12;15.30;99.90
56256;DHT22;57229;51.432;-2.598;2022-12-29T17:50:38;15.20;99.90
56256;DHT22;57229;51.432;-2.598;2022-12-29T17:53:06;15.20;99.90
56256;DHT22;57229;51.432;-2.598;2022-12-29T17:55:32;15.20;99.90
56256;DHT22;57229;51.432;-2.598;2022-12-29T17:57:58;15.10;99.90
56256;DHT22;57229;51.432;-2.598;2022-12-29T18:00:29;15.10;99.90
56256;DHT22;57229;51.432;-2.598;2022-12-29T18:02:56;15.10;99.90
56256;DHT22;57229;51.432;-2.598;2022-12-29T18:05:31;15.00;99.90
56256;DHT22;57229;51.432;-2.598;2022-12-29T18:07:58;15.00;99.90
56256;DHT22;57229;51.432;-2.598;2022-12-29T18:10:26;15.00;99.90
56256;DHT22;57229;51.432;-2.598;2022-12-29T18:12:54;14.90;99.90
56256;DHT22;57229;51.432;-2.598;2022-12-29T18:15:26;14.90;99.90
56256;DHT22;57229;51.432;-2.598;2022-12-29T18:20:34;14.90;99.90
56256;DHT22;57229;51.432;-2.598;2022-12-29T18:23:00;14.80;99.90
56256;DHT22;57229;51.432;-2.598;2022-12-29T18:25:50;14.80;99.90
56256;DHT22;57229;51.432;-2.598;2022-12-29T18:28:18;14.80;99.90
56256;DHT22;57229;51.432;-2.598;2022-12-29T18:30:43;14.80;99.90
56256;DHT22;57229;51.432;-2.598;2022-12-29T18:33:20;14.70;99.90
56256;DHT22;57229;51.432;-2.598;2022-12-29T18:36:00;14.70;99.90
56256;DHT22;57229;51.432;-2.598;2022-12-29T18:38:27;14.70;99.90
56256;DHT22;57229;51.432;-2.598;2022-12-29T18:40:53;14.70;99.90
56256;DHT22;57229;51.432;-2.598;2022-12-29T18:43:19;14.60;99.90
56256;DHT22;57229;51.432;-2.598;2022-12-29T18:45:45;14.60;99.90
56256;DHT22;57229;51.432;-2.598;2022-12-29T18:48:12;14.60;99.90
56256;DHT22;57229;51.432;-2.598;2022-12-29T18:50:38;14.60;99.90
56256;DHT22;57229;51.432;-2.598;2022-12-29T18:53:04;14.60;99.90
56256;DHT22;57229;51.432;-2.598;2022-12-29T18:55:29;14.50;99.90
56256;DHT22;57229;51.432;-2.598;2022-12-29T18:57:55;14.50;99.90
56256;DHT22;57229;51.432;-2.598;2022-12-29T19:00:27;14.50;99.90
56256;DHT22;57229;51.432;-2.598;2022-12-29T19:02:56;14.50;99.90
56256;DHT22;57229;51.432;-2.598;2022-12-29T19:05:34;14.40;99.90
56256;DHT22;57229;51.432;-2.598;2022-12-29T19:08:00;14.40;99.90
56256;DHT22;57229;51.432;-2.598;2022-12-29T19:10:27;14.40;99.90
56256;DHT22;57229;51.432;-2.598;2022-12-29T19:12:55;14.40;99.90
56256;DHT22;57229;51.432;-2.598;2022-12-29T19:15:30;14.40;99.90
56256;DHT22;57229;51.432;-2.598;2022-12-29T19:17:58;14.30;99.90
56256;DHT22;57229;51.432;-2.598;2022-12-29T19:20:40;14.40;99.90
56256;DHT22;57229;51.432;-2.598;2022-12-29T19:23:16;14.30;99.90
56256;DHT22;57229;51.432;-2.598;2022-12-29T19:25:48;14.30;99.90
56256;DHT22;57229;51.432;-2.598;2022-12-29T19:28:49;14.30;99.90
56256;DHT22;57229;51.432;-2.598;2022-12-29T19:31:18;14.30;99.90
56256;DHT22;57229;51.432;-2.598;2022-12-29T19:33:44;14.20;99.90
56256;DHT22;57229;51.432;-2.598;2022-12-29T19:36:23;14.20;99.90
56256;DHT22;57229;51.432;-2.598;2022-12-29T19:39:09;14.20;99.90
56256;DHT22;57229;51.432;-2.598;2022-12-29T19:41:38;14.20;99.90
56256;DHT22;57229;51.432;-2.598;2022-12-29T19:44:15;14.20;99.90
56256;DHT22;57229;51.432;-2.598;2022-12-29T19:46:48;14.20;99.90
56256;DHT22;57229;51.432;-2.598;2022-12-29T19:49:45;14.20;99.90
56256;DHT22;57229;51.432;-2.598;2022-12-29T19:55:34;14.20;99.90
56256;DHT22;57229;51.432;-2.598;2022-12-29T19:58:12;14.20;99.90
56256;DHT22;57229;51.432;-2.598;2022-12-29T20:00:47;14.20;99.90
56256;DHT22;57229;51.432;-2.598;2022-12-29T20:03:25;14.20;99.90
56256;DHT22;57229;51.432;-2.598;2022-12-29T20:06:02;14.10;99.90
56256;DHT22;57229;51.432;-2.598;2022-12-29T20:18:55;14.10;99.90
56256;DHT22;57229;51.432;-2.598;2022-12-29T20:22:00;14.10;99.90
56256;DHT22;57229;51.432;-2.598;2022-12-29T20:24:33;14.10;99.90
56256;DHT22;57229;51.432;-2.598;2022-12-29T20:27:00;14.10;99.90
56256;DHT22;57229;51.432;-2.598;2022-12-29T20:33:16;14.00;99.90